Time;durP1;ratioP1;P1;durP2;ratioP2;P2;SDS_P1;SDS_P2;PMS_P1;PMS_P2;Temp;Humidity;BMP_temperature;BMP_pressure;BME280_temperature;BME280_humidity;BME280_pressure;Samples;Min_cycle;Max_cycle;Signal;HPM_P1;HPM_P2
2022/12/19 00:01:07;;;;;;;;;;;;;;;;;;4909259;29;20411;-74
2022/12/19 00:03:34;;;;;;;5.82;3.83;;;;;;;;;;4909540;29;20010;-74
2022/12/19 00:06:02;;;;;;;5.93;3.78;;;;;;;;;;4907132;29;20106;-73
2022/12/19 00:08:28;;;;;;;5.53;3.70;;;;;;;;;;4908628;29;20131;-73
2022/12/19 00:10:59;;;;;;;7.25;4.60;;;;;;;;;;4909353;29;20127;-73
2022/12/19 00:13:26;;;;;;;7.28;3.92;;;;;;;;;;4907232;29;20058;-73
2022/12/19 00:15:52;;;;;;;7.43;3.95;;;;;;;;;;4906965;29;20032;-74
2022/12/19 00:18:18;;;;;;;11.23;4.47;;;;;;;;;;4904628;29;20490;-73
2022/12/19 00:20:44;;;;;;;7.20;3.58;;;;;;;;;;4908969;29;20056;-74
2022/12/19 00:23:10;;;;;;;5.43;3.42;;;;;;;;;;4908006;29;20406;-74
2022/12/19 00:25:35;;;;;;;5.47;3.97;;;;;;;;;;4893039;29;20042;-73
2022/12/19 00:28:04;;;;;;;6.90;4.65;;;;;;;;;;4907304;29;20498;-74
2022/12/19 00:30:31;;;;;;;7.75;4.75;;;;;;;;;;4904727;29;20059;-73
2022/12/19 00:32:57;;;;;;;7.97;5.55;;;;;;;;;;4904733;29;20593;-73
2022/12/19 00:35:23;;;;;;;14.80;7.93;;;;;;;;;;4908512;29;20035;-73
2022/12/19 00:37:49;;;;;;;9.75;5.93;;;;;;;;;;4906392;29;20060;-74
2022/12/19 00:40:15;;;;;;;7.00;3.92;;;;;;;;;;4904708;29;20482;-74
2022/12/19 00:42:41;;;;;;;6.25;3.85;;;;;;;;;;4901485;29;20043;-74
2022/12/19 00:45:07;;;;;;;5.45;3.95;;;;;;;;;;4903781;29;20043;-74
2022/12/19 00:47:34;;;;;;;5.95;4.03;;;;;;;;;;4902365;29;20032;-74
2022/12/19 00:49:59;;;;;;;6.43;3.65;;;;;;;;;;4906480;29;20058;-73
2022/12/19 00:52:26;;;;;;;6.82;3.63;;;;;;;;;;4904821;29;20028;-73
2022/12/19 00:54:51;;;;;;;6.22;4.18;;;;;;;;;;4905309;29;20507;-73
2022/12/19 00:57:18;;;;;;;8.18;3.72;;;;;;;;;;4901030;29;20043;-74
2022/12/19 00:59:44;;;;;;;6.13;4.30;;;;;;;;;;4902177;29;20040;-73
2022/12/19 01:02:10;;;;;;;6.10;4.03;;;;;;;;;;4906791;29;20557;-73
2022/12/19 01:04:35;;;;;;;5.75;3.40;;;;;;;;;;4902116;29;20029;-74
2022/12/19 01:07:04;;;;;;;6.00;3.60;;;;;;;;;;4905280;29;20140;-74
2022/12/19 01:09:32;;;;;;;5.53;3.58;;;;;;;;;;4904703;29;20722;-73
2022/12/19 01:14:43;;;;;;;6.53;3.92;;;;;;;;;;4906490;29;20044;-74
2022/12/19 01:17:09;;;;;;;7.60;4.10;;;;;;;;;;4904971;29;20036;-74
2022/12/19 01:19:35;;;;;;;6.10;3.60;;;;;;;;;;4900858;29;20495;-75
2022/12/19 01:22:01;;;;;;;6.68;4.40;;;;;;;;;;4902373;29;20064;-73
2022/12/19 01:24:27;;;;;;;7.93;3.88;;;;;;;;;;4904604;29;20131;-73
2022/12/19 01:26:52;;;;;;;7.45;4.47;;;;;;;;;;4905044;29;20576;-74
2022/12/19 01:29:20;;;;;;;6.10;3.95;;;;;;;;;;4904989;29;20092;-74
2022/12/19 01:31:46;;;;;;;8.00;3.80;;;;;;;;;;4905484;29;20048;-73
2022/12/19 01:34:12;;;;;;;8.90;4.30;;;;;;;;;;4903382;29;20048;-72
2022/12/19 01:36:38;;;;;;;8.93;4.30;;;;;;;;;;4903964;29;20167;-74
2022/12/19 01:39:04;;;;;;;9.52;4.70;;;;;;;;;;4905665;29;20039;-74
2022/12/19 01:41:30;;;;;;;8.95;5.13;;;;;;;;;;4905208;29;20474;-73
2022/12/19 01:44:02;;;;;;;12.27;6.22;;;;;;;;;;4905637;29;20520;-74
2022/12/19 01:46:35;;;;;;;12.25;7.25;;;;;;;;;;4904105;29;20035;-75
2022/12/19 01:49:02;;;;;;;13.33;7.00;;;;;;;;;;4902145;29;20040;-74
2022/12/19 01:51:40;;;;;;;11.45;6.85;;;;;;;;;;4902412;29;20044;-73
2022/12/19 01:54:12;;;;;;;11.82;7.97;;;;;;;;;;4902548;29;20048;-74
2022/12/19 01:56:44;;;;;;;13.50;7.97;;;;;;;;;;4904498;29;20055;-74
2022/12/19 01:59:17;;;;;;;15.30;8.75;;;;;;;;;;4888641;29;20029;-74
2022/12/19 02:01:43;;;;;;;10.77;7.27;;;;;;;;;;4903837;29;20102;-73
2022/12/19 02:04:10;;;;;;;12.02;7.65;;;;;;;;;;4901737;29;20482;-73
2022/12/19 02:06:39;;;;;;;12.52;7.22;;;;;;;;;;4906588;29;20058;-74
2022/12/19 02:09:05;;;;;;;13.57;7.20;;;;;;;;;;4901923;29;20024;-74
2022/12/19 02:11:31;;;;;;;11.18;7.10;;;;;;;;;;4901809;29;20131;-74
2022/12/19 02:13:57;;;;;;;10.25;6.43;;;;;;;;;;4903903;29;20135;-74
2022/12/19 02:16:38;;;;;;;8.45;5.85;;;;;;;;;;4901717;29;20079;-74
2022/12/19 02:19:13;;;;;;;12.60;6.82;;;;;;;;;;4854818;29;1525980;-74
2022/12/19 02:21:59;;;;;;;10.88;6.70;;;;;;;;;;4903214;29;20100;-74
2022/12/19 02:24:34;;;;;;;11.85;7.07;;;;;;;;;;4905350;29;20044;-74
2022/12/19 02:27:34;;;;;;;10.60;6.55;;;;;;;;;;4904261;29;20044;-74
2022/12/19 02:30:42;;;;;;;11.60;6.60;;;;;;;;;;4904466;29;20045;-73
2022/12/19 02:33:18;;;;;;;14.90;7.57;;;;;;;;;;4884349;29;20516;-74
2022/12/19 02:35:53;;;;;;;11.13;6.93;;;;;;;;;;4904533;29;20058;-74
2022/12/19 02:38:27;;;;;;;13.45;7.13;;;;;;;;;;4906456;29;20033;-74
2022/12/19 02:41:14;;;;;;;11.55;7.40;;;;;;;;;;4910003;28;20104;-74
2022/12/19 02:43:45;;;;;;;11.63;6.97;;;;;;;;;;4905260;29;20507;-74
2022/12/19 02:46:12;;;;;;;10.18;7.22;;;;;;;;;;4903816;29;20052;-74
2022/12/19 02:48:40;;;;;;;10.52;6.95;;;;;;;;;;4904603;29;20447;-74
2022/12/19 02:51:06;;;;;;;10.48;6.20;;;;;;;;;;4900542;29;20036;-74
2022/12/19 02:53:36;;;;;;;8.95;5.72;;;;;;;;;;4901643;29;20502;-75
2022/12/19 02:56:15;;;;;;;9.32;5.57;;;;;;;;;;4903509;29;20518;-73
2022/12/19 02:58:55;;;;;;;9.82;6.05;;;;;;;;;;4901696;29;20052;-74
2022/12/19 03:01:41;;;;;;;9.77;5.93;;;;;;;;;;4904863;29;20042;-74
2022/12/19 03:04:24;;;;;;;10.15;6.15;;;;;;;;;;4904543;29;20206;-74
2022/12/19 03:06:50;;;;;;;;;;;;;;;;;;4905071;29;20048;-74
2022/12/19 03:09:47;;;;;;;6.60;3.90;;;;;;;;;;4888640;29;19919;-73
2022/12/19 03:12:17;;;;;;;8.68;4.43;;;;;;;;;;4892555;29;20083;-74
2022/12/19 03:14:45;;;;;;;7.15;4.18;;;;;;;;;;4901856;29;20064;-74
2022/12/19 03:17:18;;;;;;;10.88;5.40;;;;;;;;;;4906054;29;20027;-76
2022/12/19 03:19:45;;;;;;;10.43;4.80;;;;;;;;;;4902996;29;20066;-74
2022/12/19 03:22:10;;;;;;;6.45;3.92;;;;;;;;;;4903534;29;20045;-74
2022/12/19 03:24:36;;;;;;;10.38;5.57;;;;;;;;;;4907221;29;20043;-74
2022/12/19 03:27:18;;;;;;;9.65;6.30;;;;;;;;;;4903656;29;20111;-74
2022/12/19 03:30:00;;;;;;;12.32;6.40;;;;;;;;;;4905174;29;20040;-74
2022/12/19 03:32:28;;;;;;;7.70;4.90;;;;;;;;;;4904664;29;20100;-74
2022/12/19 03:35:09;;;;;;;8.50;5.15;;;;;;;;;;4904564;29;20077;-74
2022/12/19 03:37:38;;;;;;;11.60;6.13;;;;;;;;;;4904674;29;20043;-74
2022/12/19 03:40:10;;;;;;;11.23;6.30;;;;;;;;;;4905744;29;20045;-74
2022/12/19 03:45:32;;;;;;;11.43;6.20;;;;;;;;;;4903586;29;20036;-74
2022/12/19 03:48:04;;;;;;;10.05;6.22;;;;;;;;;;4902811;29;20033;-74
2022/12/19 03:50:41;;;;;;;14.93;6.00;;;;;;;;;;4905628;29;20103;-73
2022/12/19 03:53:25;;;;;;;10.45;6.30;;;;;;;;;;4902235;29;20111;-74
2022/12/19 03:56:05;;;;;;;10.60;6.18;;;;;;;;;;4904362;29;20046;-74
2022/12/19 03:58:35;;;;;;;11.98;6.22;;;;;;;;;;4905014;29;20032;-74
2022/12/19 04:01:03;;;;;;;13.43;6.72;;;;;;;;;;4903553;29;20036;-73
2022/12/19 04:03:30;;;;;;;12.13;6.95;;;;;;;;;;4901967;29;20032;-74
2022/12/19 04:05:58;;;;;;;11.82;6.47;;;;;;;;;;4908483;29;20100;-74
2022/12/19 04:08:24;;;;;;;10.57;6.25;;;;;;;;;;4901507;29;20029;-73
2022/12/19 04:10:57;;;;;;;12.05;6.70;;;;;;;;;;4903851;29;20043;-73
2022/12/19 04:13:42;;;;;;;9.95;6.45;;;;;;;;;;4903569;29;20486;-73
2022/12/19 04:16:45;;;;;;;11.38;7.60;;;;;;;;;;4903667;29;20045;-74
2022/12/19 04:19:28;;;;;;;11.32;6.47;;;;;;;;;;4905836;29;20056;-74
2022/12/19 04:22:04;;;;;;;11.57;6.70;;;;;;;;;;4903603;29;20112;-74
2022/12/19 04:24:34;;;;;;;11.68;7.20;;;;;;;;;;4905428;29;20286;-74
2022/12/19 04:27:04;;;;;;;10.10;6.15;;;;;;;;;;4902294;29;20048;-74
2022/12/19 04:29:33;;;;;;;13.38;7.05;;;;;;;;;;4907049;29;20037;-74
2022/12/19 04:32:01;;;;;;;10.18;5.95;;;;;;;;;;4905155;29;20516;-74
2022/12/19 04:34:27;;;;;;;11.23;6.30;;;;;;;;;;4903592;29;20080;-74
2022/12/19 04:36:53;;;;;;;14.38;7.68;;;;;;;;;;4906588;29;20075;-74
2022/12/19 04:39:19;;;;;;;15.50;8.30;;;;;;;;;;4905400;29;20036;-74
2022/12/19 04:41:45;;;;;;;13.52;7.32;;;;;;;;;;4908209;29;20037;-74
2022/12/19 04:44:11;;;;;;;11.30;6.38;;;;;;;;;;4906827;29;20032;-74
2022/12/19 04:46:37;;;;;;;16.33;10.23;;;;;;;;;;4904487;29;20040;-74
2022/12/19 04:49:02;;;;;;;14.27;7.00;;;;;;;;;;4907796;29;20155;-74
2022/12/19 04:51:29;;;;;;;10.60;5.90;;;;;;;;;;4905894;29;20045;-74
2022/12/19 04:53:57;;;;;;;15.18;6.82;;;;;;;;;;4909108;29;20447;-74
2022/12/19 04:56:23;;;;;;;17.75;8.43;;;;;;;;;;4907246;29;20044;-74
2022/12/19 04:58:49;;;;;;;13.57;7.38;;;;;;;;;;4910429;29;20414;-74
2022/12/19 05:01:15;;;;;;;13.43;7.28;;;;;;;;;;4908307;29;20038;-74
2022/12/19 05:03:40;;;;;;;18.33;9.63;;;;;;;;;;4906662;29;20099;-73
2022/12/19 05:06:12;;;;;;;15.82;8.23;;;;;;;;;;4907922;29;20033;-73
2022/12/19 05:08:39;;;;;;;20.25;9.10;;;;;;;;;;4903843;29;20074;-74
2022/12/19 05:11:07;;;;;;;18.77;10.10;;;;;;;;;;4905748;29;20576;-74
2022/12/19 05:13:34;;;;;;;12.75;6.50;;;;;;;;;;4905106;29;20586;-74
2022/12/19 05:16:02;;;;;;;12.30;6.53;;;;;;;;;;4904705;29;20067;-74
2022/12/19 05:18:29;;;;;;;12.23;6.45;;;;;;;;;;4921162;29;20052;-75
2022/12/19 05:20:55;;;;;;;13.23;6.72;;;;;;;;;;4905049;29;20091;-74
2022/12/19 05:23:21;;;;;;;11.75;7.00;;;;;;;;;;4909598;29;20047;-74
2022/12/19 05:25:47;;;;;;;15.30;7.78;;;;;;;;;;4906553;29;20155;-74
2022/12/19 05:28:13;;;;;;;12.35;8.05;;;;;;;;;;4908868;29;20832;-74
2022/12/19 05:30:40;;;;;;;11.90;7.53;;;;;;;;;;4901797;29;20493;-74
2022/12/19 05:33:06;;;;;;;12.48;7.25;;;;;;;;;;4905947;29;20044;-74
2022/12/19 05:35:33;;;;;;;13.13;7.70;;;;;;;;;;4902305;29;20039;-74
2022/12/19 05:38:01;;;;;;;11.10;6.57;;;;;;;;;;4903727;29;20080;-74
2022/12/19 05:40:27;;;;;;;10.57;6.50;;;;;;;;;;4904938;29;20490;-74
2022/12/19 05:42:53;;;;;;;13.65;7.38;;;;;;;;;;4902942;29;20041;-73
2022/12/19 05:45:19;;;;;;;11.98;7.47;;;;;;;;;;4910353;29;20079;-74
2022/12/19 05:47:46;;;;;;;15.60;8.65;;;;;;;;;;4913781;29;20036;-75
2022/12/19 05:50:13;;;;;;;15.82;8.50;;;;;;;;;;4915267;29;20026;-74
2022/12/19 05:52:39;;;;;;;15.63;8.13;;;;;;;;;;4916371;29;20506;-74
2022/12/19 05:55:06;;;;;;;14.73;8.05;;;;;;;;;;4914516;29;20031;-74
2022/12/19 05:57:34;;;;;;;13.90;8.45;;;;;;;;;;4915944;29;20640;-74
2022/12/19 06:00:00;;;;;;;17.27;9.45;;;;;;;;;;4915940;29;20442;-74
2022/12/19 06:02:26;;;;;;;19.30;8.65;;;;;;;;;;4916449;29;20036;-74
2022/12/19 06:04:52;;;;;;;14.88;7.25;;;;;;;;;;4916368;29;20091;-74
2022/12/19 06:07:19;;;;;;;12.40;7.55;;;;;;;;;;4916045;29;20028;-74
2022/12/19 06:09:44;;;;;;;13.55;7.53;;;;;;;;;;4914570;29;20027;-75
2022/12/19 06:12:13;;;;;;;13.05;7.65;;;;;;;;;;4916219;29;20039;-74
2022/12/19 06:14:39;;;;;;;15.95;8.38;;;;;;;;;;4914351;29;20086;-74
2022/12/19 06:17:06;;;;;;;12.95;7.07;;;;;;;;;;4914293;29;20036;-73
2022/12/19 06:19:32;;;;;;;16.48;7.97;;;;;;;;;;4916002;29;20127;-73
2022/12/19 06:21:57;;;;;;;15.43;8.70;;;;;;;;;;4915607;29;20038;-75
2022/12/19 06:24:24;;;;;;;15.68;8.25;;;;;;;;;;4915564;29;20525;-74
2022/12/19 06:26:50;;;;;;;16.05;8.15;;;;;;;;;;4915781;29;20395;-74
2022/12/19 06:29:16;;;;;;;14.90;8.38;;;;;;;;;;4915782;29;20043;-75
2022/12/19 06:31:42;;;;;;;17.38;9.48;;;;;;;;;;4915184;29;20032;-75
2022/12/19 06:34:11;;;;;;;18.33;8.82;;;;;;;;;;4916328;29;20028;-73
2022/12/19 06:36:40;;;;;;;18.35;9.07;;;;;;;;;;4913232;29;20028;-74
2022/12/19 06:39:06;;;;;;;15.85;9.48;;;;;;;;;;4915410;29;20071;-74
2022/12/19 06:44:17;;;;;;;13.43;8.50;;;;;;;;;;4915040;29;20119;-74
2022/12/19 06:46:43;;;;;;;17.02;8.65;;;;;;;;;;4915431;29;20108;-74
2022/12/19 06:49:10;;;;;;;13.20;8.25;;;;;;;;;;4915363;29;20028;-75
2022/12/19 06:51:35;;;;;;;14.70;8.13;;;;;;;;;;4915238;29;20024;-75
2022/12/19 06:54:02;;;;;;;15.90;9.23;;;;;;;;;;4914838;29;20071;-74
2022/12/19 06:56:32;;;;;;;14.43;8.50;;;;;;;;;;4916114;29;20172;-75
2022/12/19 06:58:59;;;;;;;12.95;7.57;;;;;;;;;;4915761;29;20032;-75
2022/12/19 07:01:37;;;;;;;12.30;7.43;;;;;;;;;;4915448;29;20028;-73
2022/12/19 07:04:05;;;;;;;17.33;10.10;;;;;;;;;;4914774;29;20047;-74
2022/12/19 07:06:31;;;;;;;17.38;9.05;;;;;;;;;;4915678;29;20055;-75
2022/12/19 07:08:57;;;;;;;16.35;8.57;;;;;;;;;;4916010;29;20032;-75
2022/12/19 07:11:22;;;;;;;14.48;8.15;;;;;;;;;;4914950;29;20031;-74
2022/12/19 07:13:48;;;;;;;13.15;7.82;;;;;;;;;;4913585;29;20115;-75
2022/12/19 07:16:14;;;;;;;14.75;8.90;;;;;;;;;;4915463;29;20063;-75
2022/12/19 07:18:40;;;;;;;15.48;8.45;;;;;;;;;;4915197;29;20059;-75
2022/12/19 07:21:10;;;;;;;15.38;10.32;;;;;;;;;;4915132;29;20036;-74
2022/12/19 07:23:36;;;;;;;15.63;8.70;;;;;;;;;;4914990;29;20067;-75
2022/12/19 07:26:02;;;;;;;12.00;8.57;;;;;;;;;;4912990;29;20020;-74
2022/12/19 07:28:28;;;;;;;16.58;9.80;;;;;;;;;;4914666;29;20029;-74
2022/12/19 07:30:54;;;;;;;15.80;9.63;;;;;;;;;;4914322;29;20035;-74
2022/12/19 07:33:21;;;;;;;18.83;9.75;;;;;;;;;;4914088;29;20111;-74
2022/12/19 07:35:47;;;;;;;16.85;9.93;;;;;;;;;;4912563;29;20048;-74
2022/12/19 07:38:13;;;;;;;15.98;10.05;;;;;;;;;;4914597;29;20202;-74
2022/12/19 07:40:38;;;;;;;18.02;9.20;;;;;;;;;;4913879;29;20059;-74
2022/12/19 07:43:05;;;;;;;14.63;9.05;;;;;;;;;;4909561;29;20040;-75
2022/12/19 07:45:32;;;;;;;16.80;9.00;;;;;;;;;;4907635;29;20032;-74
2022/12/19 07:48:02;;;;;;;15.68;9.38;;;;;;;;;;4898401;29;20040;-74
2022/12/19 07:50:29;;;;;;;19.80;10.52;;;;;;;;;;4896200;29;20077;-75
2022/12/19 07:52:56;;;;;;;15.43;9.80;;;;;;;;;;4896023;29;20364;-74
2022/12/19 07:55:22;;;;;;;16.67;9.02;;;;;;;;;;4895661;29;20033;-75
2022/12/19 07:57:48;;;;;;;19.50;12.18;;;;;;;;;;4898081;29;20335;-76
2022/12/19 08:00:14;;;;;;;17.30;10.40;;;;;;;;;;4901981;29;20059;-77
2022/12/19 08:02:40;;;;;;;16.90;9.85;;;;;;;;;;4900873;29;20558;-76
2022/12/19 08:05:06;;;;;;;16.73;10.50;;;;;;;;;;4906382;29;20045;-75
2022/12/19 08:07:32;;;;;;;18.20;9.25;;;;;;;;;;4910386;29;20490;-75
2022/12/19 08:09:59;;;;;;;16.00;9.43;;;;;;;;;;4911081;29;20036;-77
2022/12/19 08:12:25;;;;;;;26.35;16.52;;;;;;;;;;4911541;29;20039;-75
2022/12/19 08:14:51;;;;;;;16.30;9.65;;;;;;;;;;4916816;29;20039;-74
2022/12/19 08:17:17;;;;;;;17.17;9.98;;;;;;;;;;4920454;29;20016;-75
2022/12/19 08:19:44;;;;;;;19.23;11.60;;;;;;;;;;4919798;29;20131;-76
2022/12/19 08:22:09;;;;;;;17.80;9.68;;;;;;;;;;4918614;29;20833;-77
2022/12/19 08:24:37;;;;;;;22.48;10.35;;;;;;;;;;4917319;29;20391;-75
2022/12/19 08:27:02;;;;;;;18.05;9.63;;;;;;;;;;4918481;29;20036;-75
2022/12/19 08:29:31;;;;;;;20.38;10.27;;;;;;;;;;4917711;29;20039;-76
2022/12/19 08:31:56;;;;;;;15.45;9.38;;;;;;;;;;4916371;29;20144;-77
2022/12/19 08:34:22;;;;;;;17.73;10.57;;;;;;;;;;4909640;29;20153;-75
2022/12/19 08:36:49;;;;;;;17.30;9.52;;;;;;;;;;4903016;29;20513;-77
2022/12/19 08:39:15;;;;;;;18.52;10.00;;;;;;;;;;4923417;29;20023;-77
2022/12/19 08:41:41;;;;;;;19.48;10.90;;;;;;;;;;4919192;29;20120;-79
2022/12/19 08:44:11;;;;;;;20.10;10.10;;;;;;;;;;4936459;29;20519;-76
2022/12/19 08:46:37;;;;;;;19.73;11.57;;;;;;;;;;4923218;29;20067;-75
2022/12/19 08:49:03;;;;;;;15.88;9.73;;;;;;;;;;4907439;29;20085;-74
2022/12/19 08:51:29;;;;;;;18.83;10.43;;;;;;;;;;4916699;29;20032;-74
2022/12/19 08:53:55;;;;;;;15.13;9.70;;;;;;;;;;4916587;29;20131;-74
2022/12/19 08:56:21;;;;;;;15.20;8.52;;;;;;;;;;4914822;29;20036;-75
2022/12/19 08:58:50;;;;;;;21.90;11.52;;;;;;;;;;4915584;29;20119;-73
2022/12/19 09:01:19;;;;;;;20.15;10.93;;;;;;;;;;4914981;29;20075;-71
2022/12/19 09:03:46;;;;;;;17.35;9.35;;;;;;;;;;4913907;29;20042;-74
2022/12/19 09:06:14;;;;;;;19.65;10.85;;;;;;;;;;4916610;29;20038;-75
2022/12/19 09:08:43;;;;;;;41.08;16.02;;;;;;;;;;4915691;29;20050;-75
2022/12/19 09:11:22;;;;;;;17.80;9.82;;;;;;;;;;4917372;29;20031;-73
2022/12/19 09:13:50;;;;;;;21.25;10.23;;;;;;;;;;4918464;29;20060;-74
2022/12/19 09:16:21;;;;;;;18.00;9.88;;;;;;;;;;4900749;29;20024;-76
2022/12/19 09:18:49;;;;;;;26.98;11.18;;;;;;;;;;4914207;29;20056;-74
2022/12/19 09:21:16;;;;;;;32.08;12.23;;;;;;;;;;4916804;29;20044;-77
2022/12/19 09:23:46;;;;;;;22.65;11.77;;;;;;;;;;4915898;29;20040;-75
2022/12/19 09:26:13;;;;;;;16.65;9.65;;;;;;;;;;4912995;29;20050;-74
2022/12/19 09:28:40;;;;;;;16.80;9.73;;;;;;;;;;4925132;29;20037;-73
2022/12/19 09:31:11;;;;;;;15.30;8.95;;;;;;;;;;4913625;29;20489;-75
2022/12/19 09:33:37;;;;;;;19.27;9.77;;;;;;;;;;4926598;29;20040;-74
2022/12/19 09:36:04;;;;;;;16.98;9.48;;;;;;;;;;4909996;29;20054;-74
2022/12/19 09:38:32;;;;;;;19.80;10.48;;;;;;;;;;4915197;29;20091;-74
2022/12/19 09:40:57;;;;;;;50.22;13.07;;;;;;;;;;4901293;29;20032;-74
2022/12/19 09:44:01;;;;;;;19.50;9.98;;;;;;;;;;4896304;29;20032;-74
2022/12/19 09:46:36;;;;;;;55.25;14.35;;;;;;;;;;4896749;29;20124;-74
2022/12/19 09:49:02;;;;;;;20.55;10.18;;;;;;;;;;4897287;29;20065;-73
2022/12/19 09:51:30;;;;;;;22.90;11.98;;;;;;;;;;4897956;29;20029;-74
2022/12/19 09:54:24;;;;;;;20.15;10.45;;;;;;;;;;4913966;29;20048;-74
2022/12/19 09:56:57;;;;;;;18.02;9.98;;;;;;;;;;4916368;29;20039;-74
2022/12/19 09:59:45;;;;;;;21.48;10.43;;;;;;;;;;4915601;29;20127;-74
2022/12/19 10:02:36;;;;;;;16.25;9.70;;;;;;;;;;4916098;29;20031;-74
2022/12/19 10:05:15;;;;;;;17.38;9.27;;;;;;;;;;4896658;29;20120;-73
2022/12/19 10:07:43;;;;;;;15.45;8.77;;;;;;;;;;4896291;29;20041;-73
2022/12/19 10:10:15;;;;;;;58.10;13.02;;;;;;;;;;4897319;29;20112;-73
2022/12/19 10:13:16;;;;;;;23.02;11.43;;;;;;;;;;4897709;29;20072;-74
2022/12/19 10:15:56;;;;;;;20.55;9.32;;;;;;;;;;4896867;29;20099;-74
2022/12/19 10:18:45;;;;;;;23.27;10.23;;;;;;;;;;4897361;29;20049;-74
2022/12/19 10:21:30;;;;;;;19.23;10.65;;;;;;;;;;4897714;29;20491;-73
2022/12/19 10:24:03;;;;;;;60.75;15.05;;;;;;;;;;4897472;29;20099;-74
2022/12/19 10:26:47;;;;;;;48.10;17.85;;;;;;;;;;4897579;29;20060;-74
2022/12/19 10:29:28;;;;;;;22.17;9.95;;;;;;;;;;4897377;29;20036;-74
2022/12/19 10:32:18;;;;;;;68.35;15.75;;;;;;;;;;4897266;29;20040;-74
2022/12/19 10:34:47;;;;;;;18.20;10.05;;;;;;;;;;4897149;29;20032;-74
2022/12/19 10:37:16;;;;;;;49.55;12.80;;;;;;;;;;4896072;29;20024;-74
2022/12/19 10:40:21;;;;;;;27.15;11.75;;;;;;;;;;4897135;29;20116;-74
2022/12/19 10:42:57;;;;;;;36.47;11.27;;;;;;;;;;4895338;29;20047;-73
2022/12/19 10:45:31;;;;;;;17.17;9.60;;;;;;;;;;4897415;29;20032;-74
2022/12/19 10:47:57;;;;;;;46.63;13.23;;;;;;;;;;4897381;29;20123;-74
2022/12/19 10:50:26;;;;;;;32.92;10.93;;;;;;;;;;4897395;29;20068;-73
2022/12/19 10:52:55;;;;;;;79.65;15.98;;;;;;;;;;4897290;29;20048;-74
2022/12/19 10:55:41;;;;;;;45.20;12.95;;;;;;;;;;4897531;29;20040;-74
2022/12/19 10:58:24;;;;;;;29.30;10.70;;;;;;;;;;4896215;29;20032;-73
2022/12/19 11:01:35;;;;;;;76.63;15.80;;;;;;;;;;4896305;29;20028;-74
2022/12/19 11:04:28;;;;;;;26.05;11.32;;;;;;;;;;4900357;29;20045;-73
2022/12/19 11:07:06;;;;;;;47.45;13.23;;;;;;;;;;4896759;29;20038;-74
2022/12/19 11:09:38;;;;;;;65.03;13.80;;;;;;;;;;4896918;29;20148;-74
2022/12/19 11:12:07;;;;;;;40.78;12.40;;;;;;;;;;4897192;29;20096;-74
2022/12/19 11:14:36;;;;;;;17.77;10.38;;;;;;;;;;4896936;29;20028;-73
2022/12/19 11:17:02;;;;;;;23.67;11.40;;;;;;;;;;4896677;29;20531;-74
2022/12/19 11:19:36;;;;;;;19.83;9.43;;;;;;;;;;4896701;29;20048;-74
2022/12/19 11:22:15;;;;;;;17.25;8.55;;;;;;;;;;4897146;29;20040;-74
2022/12/19 11:24:45;;;;;;;24.08;9.77;;;;;;;;;;4896501;29;20116;-74
2022/12/19 11:27:39;;;;;;;49.70;12.95;;;;;;;;;;4896584;29;20107;-74
2022/12/19 11:30:26;;;;;;;69.03;14.50;;;;;;;;;;4896750;29;20064;-74
2022/12/19 11:33:16;;;;;;;37.92;11.25;;;;;;;;;;4895390;29;20028;-74
2022/12/19 11:35:54;;;;;;;55.25;12.93;;;;;;;;;;4895693;29;20380;-74
2022/12/19 11:38:33;;;;;;;58.90;12.20;;;;;;;;;;4897007;29;20036;-74
2022/12/19 11:41:11;;;;;;;31.83;10.75;;;;;;;;;;4900064;29;20077;-75
2022/12/19 11:43:50;;;;;;;35.92;10.30;;;;;;;;;;4901741;29;20028;-74
2022/12/19 11:46:22;;;;;;;36.35;10.60;;;;;;;;;;4901138;29;20064;-74
2022/12/19 11:49:10;;;;;;;21.63;8.27;;;;;;;;;;4908815;29;20040;-73
2022/12/19 11:51:51;;;;;;;24.00;8.65;;;;;;;;;;4919804;29;20407;-73
2022/12/19 11:54:27;;;;;;;21.48;9.45;;;;;;;;;;4902007;29;20040;-73
2022/12/19 11:56:55;;;;;;;6.72;3.90;;;;;;;;;;4919074;29;20051;-73
2022/12/19 11:59:28;;;;;;;5.90;3.97;;;;;;;;;;4917427;29;20028;-74
2022/12/19 12:02:31;;;;;;;7.47;4.32;;;;;;;;;;4917903;29;20047;-73
2022/12/19 12:05:25;;;;;;;12.02;4.53;;;;;;;;;;4898648;29;20517;-75
2022/12/19 12:08:15;;;;;;;10.50;5.18;;;;;;;;;;4900051;29;20048;-74
2022/12/19 12:11:13;;;;;;;8.48;5.13;;;;;;;;;;4898593;29;20123;-74
2022/12/19 12:14:14;;;;;;;11.40;5.82;;;;;;;;;;4913148;29;20127;-73
2022/12/19 12:16:49;;;;;;;8.38;4.78;;;;;;;;;;4901406;29;20070;-74
2022/12/19 12:19:34;;;;;;;12.30;5.18;;;;;;;;;;4901491;29;20131;-74
2022/12/19 12:22:08;;;;;;;9.18;4.72;;;;;;;;;;4917558;29;20039;-74
2022/12/19 12:25:01;;;;;;;6.72;3.95;;;;;;;;;;4905959;29;20040;-74
2022/12/19 12:28:09;;;;;;;14.90;5.20;;;;;;;;;;4899117;29;20048;-73
2022/12/19 12:31:07;;;;;;;20.42;5.38;;;;;;;;;;4899898;29;20363;-74
2022/12/19 12:33:41;;;;;;;15.25;6.43;;;;;;;;;;4899078;29;20041;-72
2022/12/19 12:36:22;;;;;;;10.82;7.13;;;;;;;;;;4899236;29;20033;-71
2022/12/19 12:39:38;;;;;;;12.77;7.05;;;;;;;;;;4914114;29;20040;-74
2022/12/19 12:42:20;;;;;;;19.73;10.57;;;;;;;;;;4899652;29;20076;-75
2022/12/19 12:44:49;;;;;;;26.08;13.18;;;;;;;;;;4900136;29;20036;-75
2022/12/19 12:47:23;;;;;;;18.08;11.00;;;;;;;;;;4901244;29;20024;-76
2022/12/19 12:49:59;;;;;;;18.25;8.27;;;;;;;;;;4913445;29;20526;-75
2022/12/19 12:52:34;;;;;;;7.43;4.20;;;;;;;;;;4899560;29;20043;-73
2022/12/19 12:55:00;;;;;;;;;;;;;;;;;;4900096;29;20543;-77
2022/12/19 12:57:26;;;;;;;6.75;4.00;;;;;;;;;;4898178;29;20362;-74
2022/12/19 13:00:24;;;;;;;21.98;9.65;;;;;;;;;;4900164;29;20122;-75
2022/12/19 13:02:55;;;;;;;28.02;9.98;;;;;;;;;;4898180;29;20041;-73
2022/12/19 13:05:43;;;;;;;22.27;9.07;;;;;;;;;;4913529;29;20088;-77
2022/12/19 13:08:26;;;;;;;15.77;5.10;;;;;;;;;;4899154;29;20040;-76
2022/12/19 13:10:55;;;;;;;15.18;7.43;;;;;;;;;;4899529;29;20036;-75
2022/12/19 13:13:49;;;;;;;35.53;23.67;;;;;;;;;;4899389;29;20170;-74
2022/12/19 13:16:41;;;;;;;37.97;20.10;;;;;;;;;;4899339;29;20434;-77
2022/12/19 13:19:18;;;;;;;31.63;18.17;;;;;;;;;;4900093;29;20049;-76
2022/12/19 13:22:02;;;;;;;34.28;20.23;;;;;;;;;;4899225;29;20040;-75
2022/12/19 13:24:39;;;;;;;;;;;;;;;;;;4899655;29;20491;-75
2022/12/19 13:27:17;;;;;;;44.10;16.65;;;;;;;;;;4899031;29;20354;-74
2022/12/19 13:29:59;;;;;;;30.52;12.63;;;;;;;;;;4898901;29;20044;-75
2022/12/19 13:32:45;;;;;;;21.95;8.10;;;;;;;;;;4898184;29;20052;-76
2022/12/19 13:35:17;;;;;;;17.75;6.10;;;;;;;;;;4907107;29;20131;-75
2022/12/19 13:38:25;;;;;;;13.63;7.13;;;;;;;;;;4898997;29;20041;-74
2022/12/19 13:40:56;;;;;;;16.38;5.60;;;;;;;;;;4898729;29;20039;-75
2022/12/19 13:43:46;;;;;;;14.55;5.75;;;;;;;;;;4900294;29;20038;-75
2022/12/19 13:46:41;;;;;;;18.85;6.28;;;;;;;;;;4897513;29;20085;-75
2022/12/19 13:49:16;;;;;;;10.50;5.88;;;;;;;;;;4896879;29;20032;-74
2022/12/19 13:51:47;;;;;;;13.25;5.28;;;;;;;;;;4898097;29;20411;-76
2022/12/19 13:54:50;;;;;;;10.07;5.35;;;;;;;;;;4898373;29;20461;-74
2022/12/19 13:57:28;;;;;;;28.80;7.63;;;;;;;;;;4911327;29;20039;-75
2022/12/19 14:00:05;;;;;;;27.83;7.95;;;;;;;;;;4914939;29;20047;-74
2022/12/19 14:03:00;;;;;;;18.33;5.32;;;;;;;;;;4916406;29;20091;-76
2022/12/19 14:05:33;;;;;;;14.43;5.25;;;;;;;;;;4916423;29;20119;-75
2022/12/19 14:08:01;;;;;;;12.70;5.03;;;;;;;;;;4916457;29;20570;-75
2022/12/19 14:10:38;;;;;;;14.35;6.10;;;;;;;;;;4897926;29;20546;-75
2022/12/19 14:15:51;;;;;;;27.55;9.48;;;;;;;;;;4896291;29;20036;-74
2022/12/19 14:18:19;;;;;;;15.63;7.82;;;;;;;;;;4901516;29;20068;-75
2022/12/19 14:20:50;;;;;;;9.43;5.22;;;;;;;;;;4916619;29;20036;-75
2022/12/19 14:23:16;;;;;;;14.68;5.60;;;;;;;;;;4897571;29;20491;-76
2022/12/19 14:25:48;;;;;;;16.17;6.55;;;;;;;;;;4897762;29;20052;-75
2022/12/19 14:28:19;;;;;;;19.27;7.47;;;;;;;;;;4897496;29;20085;-77
2022/12/19 14:31:01;;;;;;;16.30;8.10;;;;;;;;;;4896559;29;20058;-75
2022/12/19 14:33:46;;;;;;;12.80;6.53;;;;;;;;;;4897298;29;20064;-74
2022/12/19 14:36:13;;;;;;;14.77;6.32;;;;;;;;;;4896176;29;20047;-74
2022/12/19 14:38:40;;;;;;;35.92;12.25;;;;;;;;;;4897754;29;20111;-74
2022/12/19 14:44:18;;;;;;;31.33;14.75;;;;;;;;;;4896112;29;20526;-74
2022/12/19 14:47:09;;;;;;;11.10;6.70;;;;;;;;;;4896889;29;20545;-75
2022/12/19 14:49:35;;;;;;;16.83;7.93;;;;;;;;;;4897397;29;20403;-74
2022/12/19 14:52:24;;;;;;;21.98;7.68;;;;;;;;;;4895828;29;20108;-75
2022/12/19 14:55:21;;;;;;;10.27;5.40;;;;;;;;;;4897164;29;20095;-74
2022/12/19 14:57:48;;;;;;;15.75;6.47;;;;;;;;;;4897141;29;20087;-76
2022/12/19 15:00:46;;;;;;;11.77;6.18;;;;;;;;;;4906669;29;20812;-75
2022/12/19 15:03:23;;;;;;;20.38;8.18;;;;;;;;;;4917797;29;20048;-76
2022/12/19 15:05:50;;;;;;;13.00;6.20;;;;;;;;;;4915520;29;20036;-76
2022/12/19 15:08:31;;;;;;;14.65;7.18;;;;;;;;;;4913721;29;20161;-75
2022/12/19 15:13:17;;;;;;;16.45;6.63;;;;;;;;;;4912487;29;20058;-73
2022/12/19 15:13:57;;;;;;;8.32;5.25;;;;;;;;;;4912467;29;20043;-75
2022/12/19 15:16:35;;;;;;;8.10;4.45;;;;;;;;;;4915924;29;20106;-74
2022/12/19 15:19:10;;;;;;;7.35;4.00;;;;;;;;;;4915751;29;20040;-74